createdAt,value
2022-09-17T00:02:57.501Z,9.56
2022-09-17T00:08:06.066Z,9.60
2022-09-17T00:13:10.428Z,9.65
2022-09-17T00:18:15.168Z,9.73
2022-09-17T00:23:18.532Z,9.75
2022-09-17T00:28:26.032Z,9.80
2022-09-17T00:33:36.567Z,9.84
2022-09-17T00:38:40.692Z,9.88
2022-09-17T00:43:51.333Z,9.90
2022-09-17T00:48:55.669Z,9.92
2022-09-17T00:54:02.184Z,9.95
2022-09-17T00:59:06.293Z,9.98
2022-09-17T01:04:18.757Z,10.00
2022-09-17T01:09:41.720Z,10.00
2022-09-17T01:15:14.866Z,10.03
2022-09-17T01:20:39.190Z,10.12
2022-09-17T01:25:55.178Z,10.18
2022-09-17T01:31:18.992Z,10.24
2022-09-17T01:36:46.576Z,10.29
2022-09-17T01:42:15.527Z,10.31
2022-09-17T01:47:39.035Z,10.31
2022-09-17T01:52:44.826Z,10.32
2022-09-17T01:58:11.202Z,10.32
2022-09-17T02:03:23.634Z,10.27
2022-09-17T02:08:31.773Z,10.20
2022-09-17T02:13:58.992Z,10.15
2022-09-17T02:19:12.866Z,10.13
2022-09-17T02:24:24.902Z,10.14
2022-09-17T02:29:44.797Z,10.13
2022-09-17T02:34:48.109Z,10.11
2022-09-17T02:39:51.478Z,10.07
2022-09-17T02:44:57.489Z,10.11
2022-09-17T02:50:19.341Z,10.24
2022-09-17T02:55:46.642Z,10.46
2022-09-17T03:00:50.182Z,10.71
2022-09-17T03:05:55.203Z,10.90
2022-09-17T03:10:58.902Z,11.08
2022-09-17T03:16:06.565Z,11.21
2022-09-17T03:21:10.128Z,11.30
2022-09-17T03:26:14.742Z,11.38
2022-09-17T03:31:18.070Z,11.44
2022-09-17T03:36:21.392Z,11.49
2022-09-17T03:41:25.359Z,11.42
2022-09-17T03:46:28.720Z,11.28
2022-09-17T03:51:32.693Z,11.16
2022-09-17T03:56:35.961Z,11.08
2022-09-17T04:01:40.052Z,11.06
2022-09-17T04:06:43.358Z,11.04
2022-09-17T04:11:46.693Z,11.04
2022-09-17T04:16:50.004Z,11.08
2022-09-17T04:21:53.369Z,11.11
2022-09-17T04:27:02.675Z,11.14
2022-09-17T04:32:10.318Z,11.18
2022-09-17T04:37:13.674Z,11.20
2022-09-17T04:42:17.287Z,11.22
2022-09-17T04:47:20.648Z,11.26
2022-09-17T04:52:27.621Z,11.25
2022-09-17T04:57:33.705Z,11.23
2022-09-17T05:02:37.085Z,11.25
2022-09-17T05:07:40.870Z,11.28
2022-09-17T05:12:55.829Z,11.31
2022-09-17T05:18:01.283Z,11.37
2022-09-17T05:23:04.713Z,11.43
2022-09-17T05:28:08.428Z,11.52
2022-09-17T05:33:14.356Z,11.61
2022-09-17T05:38:20.737Z,11.73
2022-09-17T05:43:27.930Z,11.84
2022-09-17T05:48:31.229Z,11.95
2022-09-17T05:53:35.162Z,12.04
2022-09-17T05:58:38.388Z,12.16
2022-09-17T06:03:53.589Z,12.27
2022-09-17T06:09:03.454Z,12.37
2022-09-17T06:14:12.777Z,12.48
2022-09-17T06:19:16.460Z,12.66
2022-09-17T06:24:20.545Z,12.80
2022-09-17T06:29:25.508Z,12.93
2022-09-17T06:34:29.232Z,13.09
2022-09-17T06:39:32.472Z,13.05
2022-09-17T06:44:38.666Z,13.02
2022-09-17T06:49:42.037Z,13.04
2022-09-17T06:54:48.403Z,13.07
2022-09-17T06:59:52.286Z,13.09
2022-09-17T07:04:55.683Z,13.14
2022-09-17T07:09:58.992Z,13.27
2022-09-17T07:15:02.482Z,13.40
2022-09-17T07:20:08.804Z,13.52
2022-09-17T07:25:13.306Z,13.62
2022-09-17T07:30:16.640Z,13.74
2022-09-17T07:35:20.044Z,13.93
2022-09-17T07:40:23.441Z,14.25
2022-09-17T07:45:28.760Z,14.58
2022-09-17T07:50:33.661Z,14.73
2022-09-17T07:55:37.262Z,14.71
2022-09-17T08:00:40.674Z,14.67
2022-09-17T08:05:44.641Z,14.66
2022-09-17T08:10:48.422Z,14.60
2022-09-17T08:16:04.067Z,14.64
2022-09-17T08:21:23.229Z,14.69
2022-09-17T08:26:30.359Z,14.79
2022-09-17T08:31:38.462Z,14.85
2022-09-17T08:36:44.840Z,14.99
2022-09-17T08:41:58.735Z,15.17
2022-09-17T08:47:23.574Z,15.31
2022-09-17T08:52:55.149Z,15.34
2022-09-17T08:58:12.223Z,15.38
2022-09-17T09:03:21.672Z,15.51
2022-09-17T09:08:43.211Z,15.52
2022-09-17T09:13:50.426Z,15.64
2022-09-17T09:18:57.070Z,15.52
2022-09-17T09:24:09.912Z,15.35
2022-09-17T09:29:22.798Z,15.16
2022-09-17T09:34:29.282Z,15.27
2022-09-17T09:39:41.355Z,15.63
2022-09-17T09:44:47.903Z,15.67
2022-09-17T09:50:01.221Z,15.36
2022-09-17T09:55:57.340Z,15.22
2022-09-17T10:01:04.444Z,15.34
2022-09-17T10:06:10.092Z,15.53
2022-09-17T10:11:13.512Z,15.81
2022-09-17T10:16:28.011Z,16.04
2022-09-17T10:21:36.859Z,16.11
2022-09-17T10:26:49.061Z,16.15
2022-09-17T10:31:58.305Z,16.17
2022-09-17T10:37:01.824Z,16.29
2022-09-17T10:42:16.286Z,16.24
2022-09-17T10:47:37.720Z,16.31
2022-09-17T10:52:42.888Z,16.28
2022-09-17T10:57:58.650Z,16.06
2022-09-17T11:03:33.423Z,15.76
2022-09-17T11:09:02.921Z,15.70
2022-09-17T11:14:15.466Z,16.18
2022-09-17T11:19:46.470Z,16.66
2022-09-17T11:25:27.946Z,17.09
2022-09-17T11:31:02.865Z,17.17
2022-09-17T11:36:21.879Z,16.99
2022-09-17T11:42:21.083Z,16.66
2022-09-17T11:47:33.223Z,16.39
2022-09-17T11:52:47.854Z,16.78
2022-09-17T11:58:10.968Z,17.52
2022-09-17T12:03:21.902Z,18.02
2022-09-17T12:08:37.527Z,18.48
2022-09-17T12:13:51.542Z,18.88
2022-09-17T12:19:01.468Z,18.80
2022-09-17T12:24:13.613Z,18.54
2022-09-17T12:29:27.719Z,18.33
2022-09-17T12:34:46.344Z,18.09
2022-09-17T12:40:09.639Z,17.62
2022-09-17T12:45:28.483Z,17.58
2022-09-17T12:50:56.763Z,17.75
2022-09-17T12:56:20.072Z,18.11
2022-09-17T13:01:26.966Z,18.16
2022-09-17T13:06:59.634Z,18.39
2022-09-17T13:12:29.474Z,18.26
2022-09-17T13:17:39.434Z,17.58
2022-09-17T13:22:48.162Z,16.95
2022-09-17T13:28:07.844Z,16.55
2022-09-17T13:33:53.857Z,16.39
2022-09-17T13:39:00.498Z,16.58
2022-09-17T13:44:09.342Z,16.67
2022-09-17T13:49:15.993Z,16.68
2022-09-17T13:54:22.992Z,16.57
2022-09-17T13:59:30.985Z,16.74
2022-09-17T14:04:49.929Z,16.76
2022-09-17T14:10:02.259Z,16.19
2022-09-17T14:15:45.964Z,15.56
2022-09-17T14:20:55.976Z,15.42
2022-09-17T14:26:15.671Z,15.25
2022-09-17T14:31:36.035Z,15.06
2022-09-17T14:36:47.040Z,14.77
2022-09-17T14:42:00.095Z,14.48
2022-09-17T14:47:18.590Z,14.38
2022-09-17T14:52:35.472Z,14.42
2022-09-17T14:57:42.552Z,14.59
2022-09-17T15:03:04.608Z,14.95
2022-09-17T15:08:15.687Z,15.34
2022-09-17T15:13:54.926Z,15.56
2022-09-17T15:19:02.220Z,15.80
2022-09-17T15:24:34.413Z,15.87
2022-09-17T15:29:44.594Z,15.75
2022-09-17T15:35:24.706Z,15.55
2022-09-17T15:40:37.231Z,15.25
2022-09-17T15:45:42.618Z,14.86
2022-09-17T15:50:54.413Z,14.31
2022-09-17T15:56:05.587Z,13.69
2022-09-17T16:01:16.824Z,13.22
2022-09-17T16:06:21.098Z,12.95
2022-09-17T16:11:26.681Z,12.85
2022-09-17T16:16:37.678Z,12.85
2022-09-17T16:21:41.093Z,12.86
2022-09-17T16:26:44.611Z,12.89
2022-09-17T16:31:49.258Z,12.97
2022-09-17T16:36:52.482Z,13.01
2022-09-17T16:41:55.663Z,12.96
2022-09-17T16:46:59.189Z,12.86
2022-09-17T16:52:03.137Z,12.70
2022-09-17T16:57:06.372Z,12.48
2022-09-17T17:02:10.693Z,12.27
2022-09-17T17:07:14.156Z,12.10
2022-09-17T17:12:20.119Z,11.94
2022-09-17T17:17:23.471Z,11.83
2022-09-17T17:22:29.165Z,11.76
2022-09-17T17:27:32.640Z,11.69
2022-09-17T17:32:37.156Z,11.61
2022-09-17T17:37:40.426Z,11.55
2022-09-17T17:42:44.615Z,11.48
2022-09-17T17:47:48.023Z,11.38
2022-09-17T17:52:57.355Z,11.29
2022-09-17T17:58:07.430Z,11.17
2022-09-17T18:03:12.996Z,11.10
2022-09-17T18:08:16.209Z,11.08
2022-09-17T18:13:19.490Z,11.07
2022-09-17T18:18:23.939Z,11.01
2022-09-17T18:23:27.573Z,10.95
2022-09-17T18:28:35.448Z,10.93
2022-09-17T18:33:41.752Z,10.90
2022-09-17T18:38:46.161Z,10.87
2022-09-17T18:43:49.402Z,10.84
2022-09-17T18:48:56.892Z,10.81
2022-09-17T18:54:04.502Z,10.79
2022-09-17T18:59:08.581Z,10.78
2022-09-17T19:04:13.132Z,10.73
2022-09-17T19:09:24.817Z,10.69
2022-09-17T19:14:28.274Z,10.64
2022-09-17T19:19:37.095Z,10.59
2022-09-17T19:24:40.809Z,10.51
2022-09-17T19:29:44.285Z,10.40
2022-09-17T19:34:48.040Z,10.31
2022-09-17T19:39:51.444Z,10.19
2022-09-17T19:44:56.960Z,10.09
2022-09-17T19:50:00.524Z,9.96
2022-09-17T19:55:04.681Z,9.85
2022-09-17T20:00:11.630Z,9.75
2022-09-17T20:05:14.947Z,9.66
2022-09-17T20:10:20.745Z,9.58
2022-09-17T20:15:33.119Z,9.52
2022-09-17T20:20:46.847Z,9.50
2022-09-17T20:25:53.661Z,9.43
2022-09-17T20:31:06.381Z,9.35
2022-09-17T20:36:20.349Z,9.32
2022-09-17T20:41:25.550Z,9.27
2022-09-17T20:46:32.073Z,9.21
2022-09-17T20:51:36.143Z,9.14
2022-09-17T20:56:39.475Z,9.07
2022-09-17T21:01:45.444Z,9.02
2022-09-17T21:06:52.838Z,8.96
2022-09-17T21:11:56.569Z,8.88
2022-09-17T21:16:59.966Z,8.81
2022-09-17T21:22:03.445Z,8.75
2022-09-17T21:27:07.593Z,8.70
2022-09-17T21:32:10.865Z,8.65
2022-09-17T21:37:14.161Z,8.65
2022-09-17T21:42:17.360Z,8.67
2022-09-17T21:47:20.724Z,8.64
2022-09-17T21:52:23.982Z,8.61
2022-09-17T21:57:32.575Z,8.59
2022-09-17T22:02:37.511Z,8.55
2022-09-17T22:07:40.775Z,8.50
2022-09-17T22:12:44.646Z,8.43
2022-09-17T22:17:48.572Z,8.37
2022-09-17T22:22:56.098Z,8.29
2022-09-17T22:28:19.987Z,8.21
2022-09-17T22:33:23.150Z,8.12
2022-09-17T22:38:26.874Z,8.03
2022-09-17T22:43:30.285Z,7.94
2022-09-17T22:48:33.518Z,7.85
2022-09-17T22:53:38.307Z,7.79
2022-09-17T22:58:42.245Z,7.72
2022-09-17T23:03:47.828Z,7.68
2022-09-17T23:08:51.865Z,7.62
2022-09-17T23:14:02.460Z,7.58
2022-09-17T23:19:05.668Z,7.57
2022-09-17T23:24:11.656Z,7.55
2022-09-17T23:29:16.344Z,7.46
2022-09-17T23:34:19.619Z,7.40
2022-09-17T23:39:23.096Z,7.43
2022-09-17T23:44:26.840Z,7.52
2022-09-17T23:49:30.702Z,7.64
2022-09-17T23:54:36.831Z,7.72
2022-09-17T23:59:40.397Z,7.81
